sensor_id;sensor_type;location;lat;lon;timestamp;pressure;altitude;pressure_sealevel;temperature;humidity
81812;BME280;71243;51.848;5.768;2024-02-14T00:01:33;101453.28;;;8.55;99.31
81812;BME280;71243;51.848;5.768;2024-02-14T00:03:58;101438.53;;;8.63;99.03
81812;BME280;71243;51.848;5.768;2024-02-14T00:06:23;101430.91;;;8.60;99.39
81812;BME280;71243;51.848;5.768;2024-02-14T00:08:49;101426.34;;;8.51;99.71
81812;BME280;71243;51.848;5.768;2024-02-14T00:11:14;101425.75;;;8.59;99.34
81812;BME280;71243;51.848;5.768;2024-02-14T00:13:39;101428.47;;;8.68;98.98
81812;BME280;71243;51.848;5.768;2024-02-14T00:16:05;101427.19;;;8.63;99.02
81812;BME280;71243;51.848;5.768;2024-02-14T00:18:30;101430.16;;;8.69;98.79
81812;BME280;71243;51.848;5.768;2024-02-14T00:20:55;101427.88;;;8.65;99.31
81812;BME280;71243;51.848;5.768;2024-02-14T00:23:21;101425.25;;;8.65;99.00
81812;BME280;71243;51.848;5.768;2024-02-14T00:25:46;101410.53;;;8.73;98.89
81812;BME280;71243;51.848;5.768;2024-02-14T00:28:11;101412.06;;;8.76;99.01
81812;BME280;71243;51.848;5.768;2024-02-14T00:30:36;101411.22;;;8.75;99.01
81812;BME280;71243;51.848;5.768;2024-02-14T00:33:01;101402.97;;;8.80;98.66
81812;BME280;71243;51.848;5.768;2024-02-14T00:35:27;101405.84;;;8.77;99.22
81812;BME280;71243;51.848;5.768;2024-02-14T00:37:52;101410.25;;;8.88;98.87
81812;BME280;71243;51.848;5.768;2024-02-14T00:40:17;101392.44;;;8.80;99.48
81812;BME280;71243;51.848;5.768;2024-02-14T00:42:43;101396.13;;;8.88;99.25
81812;BME280;71243;51.848;5.768;2024-02-14T00:45:08;101396.13;;;8.88;99.35
81812;BME280;71243;51.848;5.768;2024-02-14T00:47:34;101395.28;;;8.88;99.32
81812;BME280;71243;51.848;5.768;2024-02-14T00:49:59;101381.38;;;8.86;99.06
81812;BME280;71243;51.848;5.768;2024-02-14T00:52:24;101396.56;;;8.94;98.96
81812;BME280;71243;51.848;5.768;2024-02-14T00:54:49;101400.31;;;8.91;99.10
81812;BME280;71243;51.848;5.768;2024-02-14T00:57:14;101397.44;;;8.94;99.18
81812;BME280;71243;51.848;5.768;2024-02-14T00:59:40;101389.97;;;8.99;99.06
81812;BME280;71243;51.848;5.768;2024-02-14T01:02:05;101390.09;;;8.98;99.09
81812;BME280;71243;51.848;5.768;2024-02-14T01:04:30;101389.84;;;9.01;99.03
81812;BME280;71243;51.848;5.768;2024-02-14T01:06:55;101387.22;;;9.01;99.19
81812;BME280;71243;51.848;5.768;2024-02-14T01:09:21;101390.44;;;9.04;99.17
81812;BME280;71243;51.848;5.768;2024-02-14T01:11:46;101398.56;;;9.12;98.75
81812;BME280;71243;51.848;5.768;2024-02-14T01:14:11;101392.59;;;9.10;99.24
81812;BME280;71243;51.848;5.768;2024-02-14T01:16:43;101402.16;;;9.11;98.81
81812;BME280;71243;51.848;5.768;2024-02-14T01:19:08;101387.16;;;9.23;98.36
81812;BME280;71243;51.848;5.768;2024-02-14T01:21:34;101374.19;;;9.20;98.52
81812;BME280;71243;51.848;5.768;2024-02-14T01:23:59;101384.06;;;9.18;98.86
81812;BME280;71243;51.848;5.768;2024-02-14T01:26:24;101393.50;;;9.20;98.52
81812;BME280;71243;51.848;5.768;2024-02-14T01:28:49;101386.75;;;9.27;98.53
81812;BME280;71243;51.848;5.768;2024-02-14T01:31:15;101391.19;;;9.27;98.35
81812;BME280;71243;51.848;5.768;2024-02-14T01:33:40;101380.28;;;9.31;98.11
81812;BME280;71243;51.848;5.768;2024-02-14T01:36:05;101384.22;;;9.37;97.96
81812;BME280;71243;51.848;5.768;2024-02-14T01:38:30;101376.53;;;9.34;98.26
81812;BME280;71243;51.848;5.768;2024-02-14T01:40:56;101382.38;;;9.37;97.96
81812;BME280;71243;51.848;5.768;2024-02-14T01:43:21;101372.69;;;9.38;98.22
81812;BME280;71243;51.848;5.768;2024-02-14T01:45:46;101385.59;;;9.41;98.00
81812;BME280;71243;51.848;5.768;2024-02-14T01:48:12;101379.56;;;9.50;97.75
81812;BME280;71243;51.848;5.768;2024-02-14T01:50:37;101376.88;;;9.40;98.29
81812;BME280;71243;51.848;5.768;2024-02-14T01:53:03;101383.31;;;9.47;98.07
81812;BME280;71243;51.848;5.768;2024-02-14T01:55:29;101392.38;;;9.54;97.95
81812;BME280;71243;51.848;5.768;2024-02-14T01:57:54;101375.00;;;9.52;97.93
81812;BME280;71243;51.848;5.768;2024-02-14T02:00:20;101385.41;;;9.53;97.88
81812;BME280;71243;51.848;5.768;2024-02-14T02:02:45;101379.63;;;9.59;97.76
81812;BME280;71243;51.848;5.768;2024-02-14T02:05:10;101375.72;;;9.54;98.01
81812;BME280;71243;51.848;5.768;2024-02-14T02:07:36;101383.63;;;9.54;97.94
81812;BME280;71243;51.848;5.768;2024-02-14T02:10:01;101377.13;;;9.58;97.81
81812;BME280;71243;51.848;5.768;2024-02-14T02:12:26;101384.78;;;9.61;97.56
81812;BME280;71243;51.848;5.768;2024-02-14T02:14:52;101389.47;;;9.57;97.48
81812;BME280;71243;51.848;5.768;2024-02-14T02:17:17;101392.88;;;9.69;97.62
81812;BME280;71243;51.848;5.768;2024-02-14T02:19:42;101390.06;;;9.61;97.69
81812;BME280;71243;51.848;5.768;2024-02-14T02:22:07;101379.81;;;9.67;97.76
81812;BME280;71243;51.848;5.768;2024-02-14T02:24:32;101386.34;;;9.63;98.03
81812;BME280;71243;51.848;5.768;2024-02-14T02:26:58;101381.28;;;9.60;98.18
81812;BME280;71243;51.848;5.768;2024-02-14T02:29:23;101388.72;;;9.66;98.44
81812;BME280;71243;51.848;5.768;2024-02-14T02:31:48;101386.56;;;9.60;98.75
81812;BME280;71243;51.848;5.768;2024-02-14T02:34:14;101389.66;;;9.65;98.68
81812;BME280;71243;51.848;5.768;2024-02-14T02:36:40;101380.94;;;9.65;98.76
81812;BME280;71243;51.848;5.768;2024-02-14T02:39:05;101380.53;;;9.69;98.55
81812;BME280;71243;51.848;5.768;2024-02-14T02:41:31;101378.28;;;9.65;99.21
81812;BME280;71243;51.848;5.768;2024-02-14T02:43:56;101381.28;;;9.60;99.76
81812;BME280;71243;51.848;5.768;2024-02-14T02:46:21;101386.78;;;9.68;99.38
81812;BME280;71243;51.848;5.768;2024-02-14T02:48:46;101383.88;;;9.71;99.42
81812;BME280;71243;51.848;5.768;2024-02-14T02:51:11;101373.06;;;9.74;99.24
81812;BME280;71243;51.848;5.768;2024-02-14T02:53:37;101374.97;;;9.72;99.38
81812;BME280;71243;51.848;5.768;2024-02-14T02:56:02;101386.13;;;9.76;99.42
81812;BME280;71243;51.848;5.768;2024-02-14T02:58:27;101383.75;;;9.73;99.56
81812;BME280;71243;51.848;5.768;2024-02-14T03:00:52;101377.19;;;9.67;99.69
81812;BME280;71243;51.848;5.768;2024-02-14T03:03:18;101384.47;;;9.75;99.49
81812;BME280;71243;51.848;5.768;2024-02-14T03:05:43;101383.63;;;9.74;99.78
81812;BME280;71243;51.848;5.768;2024-02-14T03:08:08;101382.78;;;9.74;99.95
81812;BME280;71243;51.848;5.768;2024-02-14T03:10:33;101380.03;;;9.75;99.86
81812;BME280;71243;51.848;5.768;2024-02-14T03:12:58;101396.56;;;9.77;99.58
81812;BME280;71243;51.848;5.768;2024-02-14T03:15:24;101386.00;;;9.77;99.53
81812;BME280;71243;51.848;5.768;2024-02-14T03:17:49;101382.25;;;9.80;99.60
81812;BME280;71243;51.848;5.768;2024-02-14T03:20:14;101375.31;;;9.79;99.47
81812;BME280;71243;51.848;5.768;2024-02-14T03:22:40;101387.28;;;9.83;99.61
81812;BME280;71243;51.848;5.768;2024-02-14T03:25:06;101385.09;;;9.88;99.32
81812;BME280;71243;51.848;5.768;2024-02-14T03:27:31;101395.38;;;9.91;99.41
81812;BME280;71243;51.848;5.768;2024-02-14T03:29:56;101392.78;;;10.00;98.87
81812;BME280;71243;51.848;5.768;2024-02-14T03:32:21;101400.53;;;9.92;99.25
81812;BME280;71243;51.848;5.768;2024-02-14T03:34:47;101394.47;;;10.02;98.75
81812;BME280;71243;51.848;5.768;2024-02-14T03:37:12;101410.44;;;10.00;98.98
81812;BME280;71243;51.848;5.768;2024-02-14T03:39:37;101401.97;;;10.06;98.73
81812;BME280;71243;51.848;5.768;2024-02-14T03:42:03;101405.09;;;10.11;98.58
81812;BME280;71243;51.848;5.768;2024-02-14T03:44:28;101401.63;;;10.11;98.41
81812;BME280;71243;51.848;5.768;2024-02-14T03:46:54;101409.44;;;10.12;98.36
81812;BME280;71243;51.848;5.768;2024-02-14T03:49:19;101407.34;;;10.16;98.39
81812;BME280;71243;51.848;5.768;2024-02-14T03:51:44;101410.13;;;10.14;98.37
81812;BME280;71243;51.848;5.768;2024-02-14T03:54:09;101411.72;;;10.06;98.72
81812;BME280;71243;51.848;5.768;2024-02-14T03:56:34;101402.69;;;10.08;98.59
81812;BME280;71243;51.848;5.768;2024-02-14T03:59:00;101411.50;;;10.09;98.81
81812;BME280;71243;51.848;5.768;2024-02-14T04:01:25;101414.56;;;10.14;98.47
81812;BME280;71243;51.848;5.768;2024-02-14T04:03:50;101407.78;;;10.21;98.04
81812;BME280;71243;51.848;5.768;2024-02-14T04:06:15;101402.50;;;10.21;98.46
81812;BME280;71243;51.848;5.768;2024-02-14T04:08:41;101414.63;;;10.23;98.02
81812;BME280;71243;51.848;5.768;2024-02-14T04:11:06;101417.84;;;10.27;97.72
81812;BME280;71243;51.848;5.768;2024-02-14T04:13:31;101418.94;;;10.24;97.98
81812;BME280;71243;51.848;5.768;2024-02-14T04:15:56;101417.94;;;10.25;97.68
81812;BME280;71243;51.848;5.768;2024-02-14T04:18:21;101418.66;;;10.27;98.10
81812;BME280;71243;51.848;5.768;2024-02-14T04:20:47;101422.16;;;10.28;98.32
81812;BME280;71243;51.848;5.768;2024-02-14T04:23:12;101424.06;;;10.26;98.48
81812;BME280;71243;51.848;5.768;2024-02-14T04:25:37;101423.84;;;10.29;98.45
81812;BME280;71243;51.848;5.768;2024-02-14T04:28:03;101431.91;;;10.37;98.17
81812;BME280;71243;51.848;5.768;2024-02-14T04:30:28;101423.94;;;10.27;98.13
81812;BME280;71243;51.848;5.768;2024-02-14T04:32:53;101428.28;;;10.28;98.42
81812;BME280;71243;51.848;5.768;2024-02-14T04:35:21;101428.13;;;10.30;98.38
81812;BME280;71243;51.848;5.768;2024-02-14T04:37:47;101425.19;;;10.23;98.92
81812;BME280;71243;51.848;5.768;2024-02-14T04:40:12;101439.41;;;10.32;98.78
81812;BME280;71243;51.848;5.768;2024-02-14T04:42:38;101428.41;;;10.27;98.89
81812;BME280;71243;51.848;5.768;2024-02-14T04:45:03;101437.63;;;10.32;98.42
81812;BME280;71243;51.848;5.768;2024-02-14T04:47:28;101436.91;;;10.30;98.65
81812;BME280;71243;51.848;5.768;2024-02-14T04:49:54;101439.28;;;10.33;98.49
81812;BME280;71243;51.848;5.768;2024-02-14T04:52:19;101439.28;;;10.33;98.89
81812;BME280;71243;51.848;5.768;2024-02-14T04:54:44;101437.63;;;10.32;99.08
81812;BME280;71243;51.848;5.768;2024-02-14T04:57:09;101452.63;;;10.32;99.20
81812;BME280;71243;51.848;5.768;2024-02-14T04:59:34;101450.81;;;10.32;99.56
81812;BME280;71243;51.848;5.768;2024-02-14T05:02:00;101458.47;;;10.35;99.50
81812;BME280;71243;51.848;5.768;2024-02-14T05:04:25;101451.38;;;10.36;99.86
81812;BME280;71243;51.848;5.768;2024-02-14T05:06:50;101452.78;;;10.40;99.45
81812;BME280;71243;51.848;5.768;2024-02-14T05:09:15;101450.69;;;10.34;99.70
81812;BME280;71243;51.848;5.768;2024-02-14T05:11:41;101453.91;;;10.37;99.33
81812;BME280;71243;51.848;5.768;2024-02-14T05:14:06;101459.03;;;10.39;99.36
81812;BME280;71243;51.848;5.768;2024-02-14T05:16:31;101465.97;;;10.40;99.42
81812;BME280;71243;51.848;5.768;2024-02-14T05:18:56;101463.91;;;10.43;99.52
81812;BME280;71243;51.848;5.768;2024-02-14T05:21:22;101460.31;;;10.44;99.33
81812;BME280;71243;51.848;5.768;2024-02-14T05:23:47;101470.03;;;10.44;99.63
81812;BME280;71243;51.848;5.768;2024-02-14T05:26:12;101462.25;;;10.42;99.72
81812;BME280;71243;51.848;5.768;2024-02-14T05:28:38;101461.97;;;10.36;100.00
81812;BME280;71243;51.848;5.768;2024-02-14T05:31:03;101470.13;;;10.33;100.00
81812;BME280;71243;51.848;5.768;2024-02-14T05:33:28;101465.28;;;10.38;100.00
81812;BME280;71243;51.848;5.768;2024-02-14T05:35:54;101466.78;;;10.31;100.00
81812;BME280;71243;51.848;5.768;2024-02-14T05:38:19;101472.38;;;10.37;100.00
81812;BME280;71243;51.848;5.768;2024-02-14T05:40:45;101468.63;;;10.40;100.00
81812;BME280;71243;51.848;5.768;2024-02-14T05:43:10;101476.25;;;10.33;100.00
81812;BME280;71243;51.848;5.768;2024-02-14T05:45:36;101483.38;;;10.42;100.00
81812;BME280;71243;51.848;5.768;2024-02-14T05:48:01;101487.09;;;10.30;100.00
81812;BME280;71243;51.848;5.768;2024-02-14T05:50:27;101475.41;;;10.33;100.00
81812;BME280;71243;51.848;5.768;2024-02-14T05:52:53;101482.63;;;10.31;100.00
81812;BME280;71243;51.848;5.768;2024-02-14T05:55:18;101479.47;;;10.37;100.00
81812;BME280;71243;51.848;5.768;2024-02-14T05:57:43;101490.31;;;10.34;100.00
81812;BME280;71243;51.848;5.768;2024-02-14T06:00:09;101484.03;;;10.35;100.00
81812;BME280;71243;51.848;5.768;2024-02-14T06:02:34;101485.19;;;10.42;100.00
81812;BME280;71243;51.848;5.768;2024-02-14T06:04:59;101484.91;;;10.45;100.00
81812;BME280;71243;51.848;5.768;2024-02-14T06:07:25;101481.13;;;10.38;100.00
81812;BME280;71243;51.848;5.768;2024-02-14T06:09:50;101481.53;;;10.33;100.00
81812;BME280;71243;51.848;5.768;2024-02-14T06:12:15;101486.31;;;10.39;100.00
81812;BME280;71243;51.848;5.768;2024-02-14T06:14:40;101490.31;;;10.34;100.00
81812;BME280;71243;51.848;5.768;2024-02-14T06:17:05;101491.03;;;10.45;100.00
81812;BME280;71243;51.848;5.768;2024-02-14T06:19:31;101493.25;;;10.40;100.00
81812;BME280;71243;51.848;5.768;2024-02-14T06:21:56;101495.88;;;10.40;100.00
81812;BME280;71243;51.848;5.768;2024-02-14T06:24:21;101499.50;;;10.39;100.00
81812;BME280;71243;51.848;5.768;2024-02-14T06:26:46;101500.72;;;10.35;100.00
81812;BME280;71243;51.848;5.768;2024-02-14T06:29:12;101506.72;;;10.37;100.00
81812;BME280;71243;51.848;5.768;2024-02-14T06:31:37;101510.66;;;10.43;100.00
81812;BME280;71243;51.848;5.768;2024-02-14T06:34:02;101518.16;;;10.47;100.00
81812;BME280;71243;51.848;5.768;2024-02-14T06:36:27;101510.88;;;10.40;100.00
81812;BME280;71243;51.848;5.768;2024-02-14T06:38:52;101523.00;;;10.42;100.00
81812;BME280;71243;51.848;5.768;2024-02-14T06:41:18;101525.78;;;10.41;100.00
81812;BME280;71243;51.848;5.768;2024-02-14T06:43:43;101519.78;;;10.39;100.00
81812;BME280;71243;51.848;5.768;2024-02-14T06:46:08;101518.81;;;10.40;100.00
81812;BME280;71243;51.848;5.768;2024-02-14T06:48:33;101519.53;;;10.42;100.00
81812;BME280;71243;51.848;5.768;2024-02-14T06:50:59;101525.78;;;10.41;100.00
81812;BME280;71243;51.848;5.768;2024-02-14T06:53:24;101527.06;;;10.46;100.00
81812;BME280;71243;51.848;5.768;2024-02-14T06:55:49;101525.00;;;10.50;100.00
81812;BME280;71243;51.848;5.768;2024-02-14T06:58:14;101525.81;;;10.50;100.00
81812;BME280;71243;51.848;5.768;2024-02-14T07:00:40;101527.75;;;10.48;100.00
81812;BME280;71243;51.848;5.768;2024-02-14T07:03:05;101531.50;;;10.46;100.00
81812;BME280;71243;51.848;5.768;2024-02-14T07:05:30;101534.91;;;10.57;100.00
81812;BME280;71243;51.848;5.768;2024-02-14T07:07:56;101532.13;;;10.59;100.00
81812;BME280;71243;51.848;5.768;2024-02-14T07:10:21;101543.59;;;10.48;100.00
81812;BME280;71243;51.848;5.768;2024-02-14T07:12:47;101542.00;;;10.57;100.00
81812;BME280;71243;51.848;5.768;2024-02-14T07:15:12;101537.41;;;10.59;100.00
81812;BME280;71243;51.848;5.768;2024-02-14T07:17:37;101538.97;;;10.61;100.00
81812;BME280;71243;51.848;5.768;2024-02-14T07:20:03;101542.03;;;10.66;100.00
81812;BME280;71243;51.848;5.768;2024-02-14T07:22:28;101541.34;;;10.64;100.00
81812;BME280;71243;51.848;5.768;2024-02-14T07:24:53;101533.94;;;10.58;100.00
81812;BME280;71243;51.848;5.768;2024-02-14T07:27:18;101543.97;;;10.64;100.00
81812;BME280;71243;51.848;5.768;2024-02-14T07:29:43;101539.81;;;10.62;100.00
81812;BME280;71243;51.848;5.768;2024-02-14T07:32:09;101547.31;;;10.66;100.00
81812;BME280;71243;51.848;5.768;2024-02-14T07:34:34;101544.31;;;10.71;100.00
81812;BME280;71243;51.848;5.768;2024-02-14T07:36:59;101546.09;;;10.70;100.00
81812;BME280;71243;51.848;5.768;2024-02-14T07:39:24;101543.03;;;10.65;100.00
81812;BME280;71243;51.848;5.768;2024-02-14T07:41:50;101550.28;;;10.73;100.00
81812;BME280;71243;51.848;5.768;2024-02-14T07:44:15;101554.75;;;10.72;100.00
81812;BME280;71243;51.848;5.768;2024-02-14T07:46:40;101551.25;;;10.72;100.00
81812;BME280;71243;51.848;5.768;2024-02-14T07:49:06;101554.97;;;10.69;100.00
81812;BME280;71243;51.848;5.768;2024-02-14T07:51:31;101554.47;;;10.75;100.00
81812;BME280;71243;51.848;5.768;2024-02-14T07:53:56;101545.56;;;10.76;100.00
81812;BME280;71243;51.848;5.768;2024-02-14T07:56:21;101556.72;;;10.80;100.00
81812;BME280;71243;51.848;5.768;2024-02-14T07:58:46;101553.06;;;10.71;100.00
81812;BME280;71243;51.848;5.768;2024-02-14T08:01:12;101554.06;;;10.80;100.00
81812;BME280;71243;51.848;5.768;2024-02-14T08:03:37;101551.81;;;10.75;100.00
81812;BME280;71243;51.848;5.768;2024-02-14T08:06:02;101562.69;;;10.82;100.00
81812;BME280;71243;51.848;5.768;2024-02-14T08:08:27;101563.53;;;10.82;100.00
81812;BME280;71243;51.848;5.768;2024-02-14T08:10:53;101577.59;;;10.83;100.00
81812;BME280;71243;51.848;5.768;2024-02-14T08:13:18;101576.06;;;10.80;100.00
81812;BME280;71243;51.848;5.768;2024-02-14T08:15:43;101571.03;;;10.77;100.00
81812;BME280;71243;51.848;5.768;2024-02-14T08:18:08;101575.19;;;10.70;100.00
81812;BME280;71243;51.848;5.768;2024-02-14T08:20:34;101579.34;;;10.73;100.00
81812;BME280;71243;51.848;5.768;2024-02-14T08:22:59;101576.97;;;10.70;100.00
81812;BME280;71243;51.848;5.768;2024-02-14T08:25:24;101576.47;;;10.76;100.00
81812;BME280;71243;51.848;5.768;2024-02-14T08:27:49;101579.34;;;10.73;100.00
81812;BME280;71243;51.848;5.768;2024-02-14T08:30:15;101578.41;;;10.74;100.00
81812;BME280;71243;51.848;5.768;2024-02-14T08:32:40;101583.94;;;10.71;100.00
81812;BME280;71243;51.848;5.768;2024-02-14T08:35:05;101581.03;;;10.74;100.00
81812;BME280;71243;51.848;5.768;2024-02-14T08:37:31;101574.78;;;10.75;100.00
81812;BME280;71243;51.848;5.768;2024-02-14T08:39:56;101576.31;;;10.77;100.00
81812;BME280;71243;51.848;5.768;2024-02-14T08:42:22;101581.47;;;10.79;100.00
81812;BME280;71243;51.848;5.768;2024-02-14T08:44:47;101584.25;;;10.77;100.00
81812;BME280;71243;51.848;5.768;2024-02-14T08:47:12;101584.69;;;10.82;100.00
81812;BME280;71243;51.848;5.768;2024-02-14T08:49:40;101587.59;;;10.79;100.00
81812;BME280;71243;51.848;5.768;2024-02-14T08:52:05;101582.06;;;10.82;100.00
81812;BME280;71243;51.848;5.768;2024-02-14T08:54:30;101586.91;;;10.77;100.00
81812;BME280;71243;51.848;5.768;2024-02-14T08:56:56;101585.53;;;10.83;100.00
81812;BME280;71243;51.848;5.768;2024-02-14T08:59:21;101586.34;;;10.83;100.00
81812;BME280;71243;51.848;5.768;2024-02-14T09:01:46;101583.41;;;10.77;100.00
81812;BME280;71243;51.848;5.768;2024-02-14T09:04:11;101589.84;;;10.84;100.00
81812;BME280;71243;51.848;5.768;2024-02-14T09:06:36;101591.19;;;10.78;100.00
81812;BME280;71243;51.848;5.768;2024-02-14T09:09:02;101593.19;;;10.86;100.00
81812;BME280;71243;51.848;5.768;2024-02-14T09:11:27;101593.78;;;10.89;100.00
81812;BME280;71243;51.848;5.768;2024-02-14T09:13:52;101585.97;;;10.88;100.00
81812;BME280;71243;51.848;5.768;2024-02-14T09:16:17;101590.56;;;10.86;100.00
81812;BME280;71243;51.848;5.768;2024-02-14T09:18:45;101591.13;;;10.89;100.00
81812;BME280;71243;51.848;5.768;2024-02-14T09:21:10;101600.22;;;10.96;100.00
81812;BME280;71243;51.848;5.768;2024-02-14T09:23:35;101596.19;;;11.02;100.00
81812;BME280;71243;51.848;5.768;2024-02-14T09:26:00;101607.28;;;10.96;100.00
81812;BME280;71243;51.848;5.768;2024-02-14T09:28:26;101606.63;;;11.03;100.00
81812;BME280;71243;51.848;5.768;2024-02-14T09:30:51;101605.94;;;11.01;100.00
81812;BME280;71243;51.848;5.768;2024-02-14T09:33:16;101615.94;;;10.98;100.00
81812;BME280;71243;51.848;5.768;2024-02-14T09:35:41;101611.78;;;11.05;100.00
81812;BME280;71243;51.848;5.768;2024-02-14T09:38:07;101612.63;;;11.05;100.00
81812;BME280;71243;51.848;5.768;2024-02-14T09:40:32;101619.16;;;11.01;100.00
81812;BME280;71243;51.848;5.768;2024-02-14T09:43:01;101618.22;;;11.12;100.00
81812;BME280;71243;51.848;5.768;2024-02-14T09:45:28;101618.50;;;11.09;100.00
81812;BME280;71243;51.848;5.768;2024-02-14T09:47:54;101628.81;;;11.12;100.00
81812;BME280;71243;51.848;5.768;2024-02-14T09:50:20;101619.78;;;11.15;100.00
81812;BME280;71243;51.848;5.768;2024-02-14T09:52:47;101614.16;;;11.08;100.00
81812;BME280;71243;51.848;5.768;2024-02-14T09:55:14;101620.88;;;11.12;100.00
81812;BME280;71243;51.848;5.768;2024-02-14T09:57:41;101617.00;;;11.16;100.00
81812;BME280;71243;51.848;5.768;2024-02-14T10:00:08;101632.22;;;11.24;100.00
81812;BME280;71243;51.848;5.768;2024-02-14T10:02:35;101626.22;;;11.22;100.00
81812;BME280;71243;51.848;5.768;2024-02-14T10:05:00;101617.59;;;11.29;100.00
81812;BME280;71243;51.848;5.768;2024-02-14T10:07:25;101631.00;;;11.37;100.00
81812;BME280;71243;51.848;5.768;2024-02-14T10:09:51;101624.88;;;11.37;100.00
81812;BME280;71243;51.848;5.768;2024-02-14T10:12:16;101634.88;;;11.33;100.00
81812;BME280;71243;51.848;5.768;2024-02-14T10:14:41;101640.22;;;11.43;100.00
81812;BME280;71243;51.848;5.768;2024-02-14T10:17:07;101631.94;;;11.36;100.00
81812;BME280;71243;51.848;5.768;2024-02-14T10:19:32;101626.72;;;11.46;100.00
81812;BME280;71243;51.848;5.768;2024-02-14T10:21:58;101626.84;;;11.44;100.00
81812;BME280;71243;51.848;5.768;2024-02-14T10:24:25;101625.72;;;11.47;100.00
81812;BME280;71243;51.848;5.768;2024-02-14T10:26:50;101630.06;;;11.48;100.00
81812;BME280;71243;51.848;5.768;2024-02-14T10:29:15;101640.53;;;11.59;100.00
81812;BME280;71243;51.848;5.768;2024-02-14T10:31:40;101630.63;;;11.51;100.00
81812;BME280;71243;51.848;5.768;2024-02-14T10:34:06;101631.91;;;11.57;100.00
81812;BME280;71243;51.848;5.768;2024-02-14T10:36:33;101647.81;;;11.66;100.00
81812;BME280;71243;51.848;5.768;2024-02-14T10:38:59;101649.38;;;11.69;100.00
81812;BME280;71243;51.848;5.768;2024-02-14T10:41:24;101657.19;;;11.70;100.00
81812;BME280;71243;51.848;5.768;2024-02-14T10:43:50;101653.00;;;11.68;100.00
81812;BME280;71243;51.848;5.768;2024-02-14T10:46:20;101654.56;;;11.80;100.00
81812;BME280;71243;51.848;5.768;2024-02-14T10:48:45;101655.38;;;11.80;100.00
81812;BME280;71243;51.848;5.768;2024-02-14T10:51:12;101655.13;;;11.83;100.00
81812;BME280;71243;51.848;5.768;2024-02-14T10:53:39;101653.44;;;11.82;100.00
81812;BME280;71243;51.848;5.768;2024-02-14T10:56:06;101651.78;;;11.81;100.00
81812;BME280;71243;51.848;5.768;2024-02-14T10:58:33;101651.22;;;11.78;100.00
81812;BME280;71243;51.848;5.768;2024-02-14T11:01:00;101645.25;;;11.85;100.00
81812;BME280;71243;51.848;5.768;2024-02-14T11:03:25;101648.13;;;11.82;100.00
81812;BME280;71243;51.848;5.768;2024-02-14T11:05:53;101641.31;;;11.89;100.00
81812;BME280;71243;51.848;5.768;2024-02-14T11:08:19;101650.53;;;11.95;100.00
81812;BME280;71243;51.848;5.768;2024-02-14T11:10:53;101642.88;;;11.92;100.00
81812;BME280;71243;51.848;5.768;2024-02-14T11:13:19;101637.84;;;11.89;100.00
81812;BME280;71243;51.848;5.768;2024-02-14T11:15:44;101639.22;;;11.93;100.00
81812;BME280;71243;51.848;5.768;2024-02-14T11:18:10;101650.81;;;11.92;100.00
81812;BME280;71243;51.848;5.768;2024-02-14T11:20:35;101635.88;;;11.91;100.00
81812;BME280;71243;51.848;5.768;2024-02-14T11:23:05;101635.88;;;11.91;100.00
81812;BME280;71243;51.848;5.768;2024-02-14T11:25:31;101638.97;;;11.96;100.00
81812;BME280;71243;51.848;5.768;2024-02-14T11:27:58;101629.06;;;11.98;100.00
81812;BME280;71243;51.848;5.768;2024-02-14T11:30:29;101636.91;;;11.99;100.00
81812;BME280;71243;51.848;5.768;2024-02-14T11:32:54;101632.97;;;12.03;100.00
81812;BME280;71243;51.848;5.768;2024-02-14T11:35:19;101636.44;;;11.94;100.00
81812;BME280;71243;51.848;5.768;2024-02-14T11:37:51;101625.16;;;12.02;100.00
81812;BME280;71243;51.848;5.768;2024-02-14T11:40:19;101629.50;;;12.03;100.00
81812;BME280;71243;51.848;5.768;2024-02-14T11:42:44;101624.06;;;12.04;100.00
81812;BME280;71243;51.848;5.768;2024-02-14T11:45:09;101623.22;;;12.04;100.00
81812;BME280;71243;51.848;5.768;2024-02-14T11:47:35;101614.03;;;12.08;100.00
81812;BME280;71243;51.848;5.768;2024-02-14T11:50:00;101627.69;;;12.03;100.00
81812;BME280;71243;51.848;5.768;2024-02-14T11:52:25;101626.00;;;12.02;100.00
81812;BME280;71243;51.848;5.768;2024-02-14T11:54:50;101624.63;;;11.98;100.00
81812;BME280;71243;51.848;5.768;2024-02-14T11:57:17;101622.53;;;12.02;100.00
81812;BME280;71243;51.848;5.768;2024-02-14T11:59:42;101619.03;;;12.11;100.00
81812;BME280;71243;51.848;5.768;2024-02-14T12:02:08;101617.94;;;12.04;100.00
81812;BME280;71243;51.848;5.768;2024-02-14T12:04:33;101620.16;;;12.08;100.00
81812;BME280;71243;51.848;5.768;2024-02-14T12:06:58;101617.78;;;12.05;100.00
81812;BME280;71243;51.848;5.768;2024-02-14T12:09:24;101618.06;;;12.12;100.00
81812;BME280;71243;51.848;5.768;2024-02-14T12:11:53;101622.69;;;12.10;100.00
81812;BME280;71243;51.848;5.768;2024-02-14T12:14:18;101614.44;;;12.13;100.00
81812;BME280;71243;51.848;5.768;2024-02-14T12:16:43;101617.38;;;12.10;100.00
81812;BME280;71243;51.848;5.768;2024-02-14T12:19:09;101617.81;;;12.15;100.00
81812;BME280;71243;51.848;5.768;2024-02-14T12:21:39;101609.44;;;12.10;100.00
81812;BME280;71243;51.848;5.768;2024-02-14T12:24:08;101609.13;;;12.23;100.00
81812;BME280;71243;51.848;5.768;2024-02-14T12:26:38;101610.41;;;12.19;100.00
81812;BME280;71243;51.848;5.768;2024-02-14T12:29:04;101609.28;;;12.21;100.00
81812;BME280;71243;51.848;5.768;2024-02-14T12:31:30;101611.38;;;12.18;100.00
81812;BME280;71243;51.848;5.768;2024-02-14T12:33:56;101616.25;;;12.22;100.00
81812;BME280;71243;51.848;5.768;2024-02-14T12:36:21;101622.97;;;12.17;100.00
81812;BME280;71243;51.848;5.768;2024-02-14T12:38:47;101622.13;;;12.26;100.00